WIOO/PNK METAR and TAF weather

Enter ICAO airport designator
Station Type Date Time Source
WIOO METAR 2019/10/23 14:30 UTC NOAA

WIOO 231430Z 18003KT 6000 FEW009CB BKN010 24/23 Q1010 NOSIG


Station Type Date Time Source
WIOO Decoded METAR 2019/10/23 14:30 UTC NOAA

Pontianak / Supadio, Indonesia (WIOO) 00-09S 109-24E 3M
Oct 23, 2019 - 10:30 AM EDT / 2019.10.23 1430 UTC
Wind: from the S (180 degrees) at 3 MPH (3 KT):0
Visibility: 3 mile(s):0
Sky conditions: mostly cloudy
Weather: Cumulonimbus clouds observed
Temperature: 75 F (24 C)
Dew Point: 73 F (23 C)
Relative Humidity: 94%
Pressure (altimeter): 29.83 in. Hg (1010 hPa)
ob: WIOO 231430Z 18003KT 6000 FEW009CB BKN010 24/23 Q1010 NOSIG
cycle: 14

Station Type Date Time Source
WIOO TAF 2014/03/26 00:51 UTC NOAA

TAF TAF WIOO 252300Z 2600/2624 10002KT 7000 SCT011
BECMG 2601/2603 08005KT 9999
TEMPO 2607/2610 15010KT 3000

Example: see airport list